Time;durP1;ratioP1;P1;durP2;ratioP2;P2;SDS_P1;SDS_P2;PMS_P1;PMS_P2;Temp;Humidity;BMP_temperature;BMP_pressure;BME280_temperature;BME280_humidity;BME280_pressure;Samples;Min_cycle;Max_cycle;Signal;HPM_P1;HPM_P2
2022/12/03 00:01:49;;;;;;;8.20;7.80;;;19.90;54.00;;;;;;5031795;28;20445;-48
2022/12/03 00:04:16;;;;;;;7.67;7.30;;;19.80;54.00;;;;;;5031516;28;20527;-47
2022/12/03 00:06:43;;;;;;;7.43;7.23;;;19.80;54.00;;;;;;5031524;28;20441;-47
2022/12/03 00:09:10;;;;;;;7.80;7.50;;;19.80;54.00;;;;;;5031133;28;20845;-47
2022/12/03 00:11:36;;;;;;;6.93;6.73;;;19.80;54.00;;;;;;5031415;28;20539;-47
2022/12/03 00:14:03;;;;;;;7.63;7.33;;;19.90;54.00;;;;;;5031541;28;20468;-47
2022/12/03 00:16:32;;;;;;;7.33;7.03;;;19.80;53.90;;;;;;5031482;28;20476;-48
2022/12/03 00:18:58;;;;;;;7.13;6.87;;;19.80;53.90;;;;;;5031029;28;20465;-47
2022/12/03 00:21:25;;;;;;;8.17;7.77;;;19.80;53.90;;;;;;5033720;28;20940;-47
2022/12/03 00:23:52;;;;;;;7.23;6.93;;;19.90;54.00;;;;;;5035532;28;20443;-48
2022/12/03 00:26:19;;;;;;;7.67;7.37;;;19.80;54.50;;;;;;5035500;28;20821;-47
2022/12/03 00:28:46;;;;;;;7.87;7.47;;;19.80;54.00;;;;;;5034994;28;20491;-46
2022/12/03 00:31:12;;;;;;;7.50;7.20;;;19.80;54.00;;;;;;5035399;28;20927;-49
2022/12/03 00:33:41;;;;;;;7.10;6.80;;;19.80;54.50;;;;;;5035403;28;20539;-47
2022/12/03 00:36:08;;;;;;;7.90;7.50;;;19.80;54.00;;;;;;5035484;28;20467;-47
2022/12/03 00:38:35;;;;;;;7.60;7.30;;;19.80;54.00;;;;;;5034965;28;20552;-47
2022/12/03 00:41:02;;;;;;;7.00;6.80;;;19.80;54.00;;;;;;5034967;28;20449;-47
2022/12/03 00:43:28;;;;;;;7.67;7.37;;;19.80;54.00;;;;;;5035229;28;20536;-47
2022/12/03 00:45:55;;;;;;;7.30;7.00;;;19.80;54.00;;;;;;5035054;28;20467;-48
2022/12/03 00:48:22;;;;;;;7.43;7.13;;;19.80;54.00;;;;;;5034573;28;20481;-49
2022/12/03 00:50:50;;;;;;;7.73;7.43;;;19.80;54.00;;;;;;5034529;28;20480;-47
2022/12/03 00:53:17;;;;;;;8.23;7.83;;;19.80;54.20;;;;;;5034964;28;20447;-47
2022/12/03 00:55:44;;;;;;;7.47;7.17;;;19.80;54.10;;;;;;5035082;28;20538;-47
2022/12/03 00:58:11;;;;;;;8.00;7.70;;;19.80;54.10;;;;;;5034650;28;20457;-47
2022/12/03 01:00:38;;;;;;;7.63;7.27;;;19.80;54.10;;;;;;5034636;28;20437;-48
2022/12/03 01:03:05;;;;;;;7.10;6.80;;;19.70;54.00;;;;;;5034971;28;20814;-49
2022/12/03 01:05:32;;;;;;;7.27;6.97;;;19.80;54.00;;;;;;5034831;28;20441;-47
2022/12/03 01:08:00;;;;;;;6.63;6.43;;;19.70;54.50;;;;;;5034414;28;20859;-48
2022/12/03 01:10:27;;;;;;;7.10;6.90;;;19.70;53.90;;;;;;5034443;28;20484;-47
2022/12/03 01:12:54;;;;;;;7.77;7.47;;;19.80;54.00;;;;;;5034711;28;20455;-47
2022/12/03 01:15:21;;;;;;;7.40;7.10;;;19.70;53.90;;;;;;5034547;28;20527;-47
2022/12/03 01:17:47;;;;;;;8.00;7.70;;;19.70;54.00;;;;;;5034269;28;20805;-47
2022/12/03 01:20:14;;;;;;;7.40;7.10;;;19.70;53.90;;;;;;5034207;28;20445;-47
2022/12/03 01:22:41;;;;;;;6.80;6.50;;;19.70;53.90;;;;;;5034437;28;20944;-47
2022/12/03 01:25:10;;;;;;;7.13;6.73;;;19.70;53.90;;;;;;5034395;28;20547;-47
2022/12/03 01:27:37;;;;;;;7.50;7.20;;;19.70;53.90;;;;;;5034132;28;20567;-47
2022/12/03 01:30:05;;;;;;;7.10;6.90;;;19.70;53.90;;;;;;5034036;28;20465;-47
2022/12/03 01:32:31;;;;;;;7.60;7.30;;;19.70;54.00;;;;;;5033847;28;20444;-47
2022/12/03 01:34:58;;;;;;;7.23;7.00;;;19.70;54.00;;;;;;5034560;28;20889;-48
2022/12/03 01:37:26;;;;;;;7.23;6.93;;;19.70;54.00;;;;;;5034313;28;20198;-47
2022/12/03 01:39:53;;;;;;;7.17;6.87;;;19.70;54.00;;;;;;5034582;28;20563;-47
2022/12/03 01:42:24;;;;;;;6.77;6.57;;;19.70;53.90;;;;;;5034008;28;20473;-47
2022/12/03 01:44:52;;;;;;;7.10;6.80;;;19.70;53.90;;;;;;5034125;28;21006;-48
2022/12/03 01:47:22;;;;;;;7.03;6.50;;;19.70;54.00;;;;;;5034220;28;20494;-47
2022/12/03 01:49:52;;;;;;;7.40;7.00;;;19.70;54.00;;;;;;5033695;28;20547;-50
2022/12/03 01:52:23;;;;;;;7.43;7.13;;;19.70;54.00;;;;;;5034206;28;20944;-47
2022/12/03 01:54:53;;;;;;;7.23;6.93;;;19.70;53.90;;;;;;5034112;28;20861;-49
2022/12/03 01:57:25;;;;;;;6.70;6.40;;;19.70;53.90;;;;;;5033939;28;20449;-47
2022/12/03 01:59:52;;;;;;;7.07;6.77;;;19.70;53.90;;;;;;5013943;28;20465;-47
2022/12/03 02:02:21;;;;;;;6.83;6.53;;;19.70;53.90;;;;;;5014074;28;21044;-47
2022/12/03 02:04:49;;;;;;;7.40;7.10;;;19.70;53.90;;;;;;5014031;28;20537;-47
2022/12/03 02:07:18;;;;;;;7.20;6.90;;;19.70;53.80;;;;;;5026551;28;20531;-48
2022/12/03 02:09:45;;;;;;;6.57;6.27;;;19.70;53.80;;;;;;5033202;28;20488;-47
2022/12/03 02:12:14;;;;;;;7.63;7.07;;;19.70;54.40;;;;;;5033553;28;20948;-49
2022/12/03 02:14:43;;;;;;;7.20;6.90;;;19.70;53.80;;;;;;5033537;28;20467;-49
2022/12/03 02:17:10;;;;;;;7.17;6.77;;;19.70;53.80;;;;;;5033265;28;20532;-49
2022/12/03 02:19:37;;;;;;;7.30;6.90;;;19.70;53.90;;;;;;5033242;28;20896;-48
2022/12/03 02:22:11;;;;;;;7.00;6.70;;;19.70;53.80;;;;;;5033420;28;21006;-47
2022/12/03 02:24:45;;;;;;;6.40;6.20;;;19.70;53.80;;;;;;5033407;28;20480;-49
2022/12/03 02:27:13;;;;;;;6.67;6.40;;;19.70;53.80;;;;;;5033152;28;20528;-49
2022/12/03 02:29:40;;;;;;;6.97;6.77;;;19.70;53.80;;;;;;5032973;28;20567;-48
2022/12/03 02:32:07;;;;;;;7.23;6.97;;;19.70;53.80;;;;;;5032875;28;20482;-47
2022/12/03 02:34:41;;;;;;;6.40;6.10;;;19.70;53.80;;;;;;5033255;28;20484;-47
2022/12/03 02:37:11;;;;;;;6.93;6.63;;;19.70;53.80;;;;;;5033071;28;20536;-47
2022/12/03 02:39:41;;;;;;;6.80;6.60;;;19.70;53.70;;;;;;5032809;28;20475;-46
2022/12/03 02:44:55;;;;;;;7.20;6.90;;;19.70;53.80;;;;;;5032457;28;20576;-48
2022/12/03 02:47:23;;;;;;;7.67;7.37;;;19.70;53.80;;;;;;5032804;28;20817;-48
2022/12/03 02:49:51;;;;;;;6.53;6.23;;;19.70;53.80;;;;;;5032640;28;20489;-47
2022/12/03 02:52:18;;;;;;;6.80;6.50;;;19.70;53.80;;;;;;5032896;28;20452;-47
2022/12/03 02:54:44;;;;;;;6.87;6.60;;;19.70;53.80;;;;;;5032862;28;20471;-48
2022/12/03 02:57:11;;;;;;;6.90;6.60;;;19.70;53.80;;;;;;5032544;28;20872;-47
2022/12/03 02:59:38;;;;;;;6.63;6.43;;;19.70;53.80;;;;;;5032551;28;20808;-48
2022/12/03 03:02:10;;;;;;;6.80;6.60;;;19.70;53.80;;;;;;5032735;28;20540;-48
2022/12/03 03:04:37;;;;;;;7.03;6.77;;;19.60;53.70;;;;;;5032751;28;20871;-47
2022/12/03 03:07:04;;;;;;;6.97;6.77;;;19.60;53.70;;;;;;5032238;28;20448;-47
2022/12/03 03:09:32;;;;;;;7.53;7.23;;;19.70;53.80;;;;;;5032171;28;20848;-47
2022/12/03 03:11:59;;;;;;;6.77;6.57;;;19.70;53.80;;;;;;5032428;28;20515;-47
2022/12/03 03:14:26;;;;;;;7.40;7.10;;;19.70;53.80;;;;;;5032122;28;20479;-47
2022/12/03 03:16:54;;;;;;;6.93;6.67;;;19.60;53.70;;;;;;5032419;28;20836;-47
2022/12/03 03:19:24;;;;;;;7.00;6.80;;;19.60;53.70;;;;;;5032046;28;20472;-49
2022/12/03 03:21:51;;;;;;;7.20;6.90;;;19.70;53.80;;;;;;5032286;28;20440;-49
2022/12/03 03:24:18;;;;;;;7.60;7.30;;;19.70;53.80;;;;;;5032289;28;20445;-47
2022/12/03 03:26:45;;;;;;;7.90;7.60;;;19.70;53.80;;;;;;5012575;28;20445;-47
2022/12/03 03:29:12;;;;;;;7.20;7.00;;;19.70;53.80;;;;;;5012383;28;20486;-49
2022/12/03 03:31:40;;;;;;;6.87;6.57;;;19.60;53.70;;;;;;5012539;28;20816;-47
2022/12/03 03:34:07;;;;;;;7.90;7.50;;;19.60;53.70;;;;;;5012436;28;20477;-47
2022/12/03 03:36:36;;;;;;;6.90;6.70;;;19.60;53.70;;;;;;5031000;28;20540;-49
2022/12/03 03:39:04;;;;;;;7.30;7.00;;;19.70;53.80;;;;;;5031809;28;20563;-47
2022/12/03 03:41:33;;;;;;;6.67;6.37;;;19.60;53.70;;;;;;5031901;28;20552;-49
2022/12/03 03:44:00;;;;;;;6.90;6.60;;;19.60;53.70;;;;;;5032062;28;20447;-48
2022/12/03 03:46:28;;;;;;;6.90;6.60;;;19.60;53.70;;;;;;5031818;28;20552;-49
2022/12/03 03:48:55;;;;;;;7.10;6.80;;;19.60;53.70;;;;;;5031657;28;20491;-47
2022/12/03 03:51:22;;;;;;;6.67;6.37;;;19.70;53.70;;;;;;5031912;28;20539;-49
2022/12/03 03:53:51;;;;;;;6.93;6.63;;;19.70;53.70;;;;;;5031640;28;20488;-49
2022/12/03 03:56:20;;;;;;;7.00;6.80;;;19.70;53.70;;;;;;5031898;28;20449;-47
2022/12/03 03:58:47;;;;;;;7.67;7.37;;;19.60;53.60;;;;;;5031437;28;20541;-47
2022/12/03 04:01:15;;;;;;;7.20;6.93;;;19.70;53.70;;;;;;5031683;28;20444;-51
2022/12/03 04:03:41;;;;;;;8.03;7.63;;;19.60;53.60;;;;;;5031797;28;20449;-52
2022/12/03 04:06:10;;;;;;;7.60;7.23;;;19.70;53.60;;;;;;5032263;28;20502;-48
2022/12/03 04:08:36;;;;;;;6.90;6.60;;;19.60;53.60;;;;;;5032003;28;20496;-48
2022/12/03 04:13:49;;;;;;;6.67;6.47;;;19.70;53.60;;;;;;5032115;28;20447;-49
2022/12/03 04:16:16;;;;;;;7.13;6.77;;;19.70;53.60;;;;;;5032250;28;20445;-52
2022/12/03 04:18:43;;;;;;;6.70;6.40;;;19.70;53.50;;;;;;5032134;28;20979;-49
2022/12/03 04:23:55;;;;;;;6.80;6.50;;;19.70;53.50;;;;;;5031786;28;20420;-47
2022/12/03 04:29:07;;;;;;;7.40;7.10;;;19.70;53.50;;;;;;5031247;28;20507;-47
2022/12/03 04:37:03;;;;;;;7.17;6.87;;;19.80;53.50;;;;;;5031473;28;20520;-48
2022/12/03 04:39:30;;;;;;;6.90;6.70;;;19.80;54.00;;;;;;5031207;28;20508;-47
2022/12/03 04:41:58;;;;;;;7.27;6.97;;;19.80;53.40;;;;;;5030986;28;20445;-49
2022/12/03 04:44:35;;;;;;;7.80;7.50;;;19.80;53.30;;;;;;5031504;28;20451;-48
2022/12/03 04:47:05;;;;;;;7.10;6.80;;;19.80;53.30;;;;;;5031440;28;20445;-48
2022/12/03 04:49:32;;;;;;;7.13;6.93;;;19.80;53.30;;;;;;5031182;28;20563;-47
2022/12/03 04:51:59;;;;;;;7.77;7.37;;;19.80;53.30;;;;;;5031218;28;20441;-48
2022/12/03 04:54:26;;;;;;;9.00;8.60;;;19.80;53.30;;;;;;5031331;28;20480;-48
2022/12/03 04:56:53;;;;;;;7.73;7.43;;;19.90;53.40;;;;;;5031189;28;20529;-47
2022/12/03 04:59:21;;;;;;;7.53;7.13;;;19.80;53.30;;;;;;5030948;28;20463;-48
2022/12/03 05:01:48;;;;;;;6.80;6.60;;;19.90;53.40;;;;;;5030938;28;20481;-47
2022/12/03 05:04:15;;;;;;;7.43;7.23;;;19.80;53.40;;;;;;5031124;28;20449;-47
2022/12/03 05:06:43;;;;;;;7.00;6.77;;;19.80;53.40;;;;;;5032354;28;20487;-49
2022/12/03 05:09:10;;;;;;;7.73;7.43;;;19.80;53.30;;;;;;5034570;28;20691;-47
2022/12/03 05:11:37;;;;;;;7.47;7.17;;;19.90;53.30;;;;;;5034489;28;20445;-47
2022/12/03 05:14:04;;;;;;;7.83;7.53;;;19.90;53.80;;;;;;5034622;28;20448;-48
2022/12/03 05:16:32;;;;;;;6.90;6.70;;;19.90;53.40;;;;;;5034718;28;20479;-47
2022/12/03 05:18:59;;;;;;;7.40;7.00;;;19.90;53.30;;;;;;5034405;28;20545;-47
2022/12/03 05:21:26;;;;;;;7.03;6.80;;;19.90;53.30;;;;;;5033898;28;21032;-48
2022/12/03 05:23:53;;;;;;;7.80;7.50;;;19.90;53.30;;;;;;5034569;28;20583;-47
2022/12/03 05:26:20;;;;;;;6.87;6.67;;;19.90;53.30;;;;;;5034468;28;20528;-47
2022/12/03 05:28:46;;;;;;;6.70;6.50;;;19.90;53.20;;;;;;5034262;28;20575;-49
2022/12/03 05:31:13;;;;;;;8.23;7.93;;;19.90;53.30;;;;;;5034047;28;20967;-47
2022/12/03 05:33:41;;;;;;;8.20;7.90;;;19.90;53.20;;;;;;5034366;28;20445;-49
2022/12/03 05:36:09;;;;;;;8.03;7.70;;;19.90;53.20;;;;;;5034213;28;21192;-48
2022/12/03 05:38:36;;;;;;;8.00;7.70;;;19.90;53.10;;;;;;5033967;28;20476;-47
2022/12/03 05:42:52;;;;;;;9.23;8.80;;;19.90;53.20;;;;;;5033688;28;20539;-49
2022/12/03 05:43:48;;;;;;;9.00;8.50;;;19.90;53.20;;;;;;5034114;28;20441;-48
2022/12/03 05:46:15;;;;;;;7.40;7.17;;;19.90;53.20;;;;;;5034017;28;20536;-47
2022/12/03 05:48:43;;;;;;;8.40;8.10;;;19.90;53.10;;;;;;5033786;28;20256;-47
2022/12/03 05:51:10;;;;;;;8.90;8.50;;;19.90;53.20;;;;;;5033619;28;20460;-47
2022/12/03 05:53:37;;;;;;;8.50;8.20;;;19.90;53.10;;;;;;5033857;28;20441;-50
2022/12/03 05:56:04;;;;;;;7.03;6.83;;;19.90;53.10;;;;;;5033748;28;20826;-49
2022/12/03 05:58:31;;;;;;;7.73;7.43;;;19.90;53.00;;;;;;5033571;28;20461;-47
2022/12/03 06:00:58;;;;;;;8.03;7.63;;;19.90;53.00;;;;;;5033524;28;20944;-49
2022/12/03 06:03:25;;;;;;;8.97;8.57;;;19.90;53.00;;;;;;5033789;28;20448;-47
2022/12/03 06:05:53;;;;;;;8.57;8.10;;;19.90;53.00;;;;;;5033931;28;20515;-47
2022/12/03 06:08:20;;;;;;;8.20;7.90;;;19.90;53.00;;;;;;5033594;28;20552;-47
2022/12/03 06:10:47;;;;;;;7.83;7.53;;;19.90;52.90;;;;;;5033428;28;20916;-47
2022/12/03 06:13:14;;;;;;;8.10;7.80;;;19.90;52.90;;;;;;5033654;28;20800;-47
2022/12/03 06:15:41;;;;;;;8.03;7.63;;;19.90;52.90;;;;;;5033584;28;20440;-49
2022/12/03 06:18:08;;;;;;;9.07;8.67;;;19.90;52.90;;;;;;5033309;28;20984;-47
2022/12/03 06:20:34;;;;;;;8.53;8.13;;;19.90;52.90;;;;;;5033297;28;20451;-47
2022/12/03 06:23:03;;;;;;;8.43;8.13;;;19.90;52.90;;;;;;5033485;28;20444;-48
2022/12/03 06:25:29;;;;;;;8.00;7.70;;;20.00;52.90;;;;;;5033459;28;20892;-47
2022/12/03 06:27:56;;;;;;;8.33;8.03;;;19.90;52.80;;;;;;5033158;28;20445;-49
2022/12/03 06:30:23;;;;;;;8.20;7.90;;;20.00;52.90;;;;;;5032686;28;20487;-47
2022/12/03 06:32:50;;;;;;;8.90;8.50;;;20.00;52.90;;;;;;5033091;28;20445;-48
2022/12/03 06:35:17;;;;;;;9.67;8.90;;;20.00;52.90;;;;;;5033089;28;20530;-49
2022/12/03 06:37:44;;;;;;;9.60;9.20;;;20.00;52.90;;;;;;5032811;28;20524;-49
2022/12/03 06:40:13;;;;;;;9.00;8.50;;;20.00;53.50;;;;;;5032468;28;20891;-48
2022/12/03 06:42:40;;;;;;;9.50;9.10;;;20.00;53.00;;;;;;5032557;28;20449;-48
2022/12/03 06:45:07;;;;;;;8.97;8.53;;;20.00;53.00;;;;;;5032851;28;20524;-47
2022/12/03 06:47:34;;;;;;;9.07;8.60;;;20.00;53.00;;;;;;5032918;28;20483;-47
2022/12/03 06:50:01;;;;;;;8.63;8.30;;;20.00;53.00;;;;;;5032275;28;20868;-49
2022/12/03 06:52:27;;;;;;;7.53;7.23;;;20.00;53.00;;;;;;5032823;28;20480;-49
2022/12/03 06:54:54;;;;;;;8.80;8.50;;;20.00;53.00;;;;;;5032733;28;20631;-49
2022/12/03 06:57:22;;;;;;;9.00;8.60;;;20.00;53.00;;;;;;5032640;28;20532;-47
2022/12/03 06:59:49;;;;;;;8.10;7.80;;;20.00;53.00;;;;;;5031783;28;20483;-49
2022/12/03 07:02:16;;;;;;;7.63;7.33;;;20.00;53.00;;;;;;5032591;28;20452;-49
2022/12/03 07:04:43;;;;;;;10.70;10.20;;;20.00;53.00;;;;;;5032524;28;20452;-49
2022/12/03 07:07:10;;;;;;;8.63;8.20;;;20.00;53.00;;;;;;5032395;28;20480;-47
2022/12/03 07:09:37;;;;;;;7.83;7.53;;;20.00;53.00;;;;;;5031912;28;20895;-47
2022/12/03 07:12:04;;;;;;;8.67;8.27;;;20.00;53.00;;;;;;5032361;28;20477;-47
2022/12/03 07:14:32;;;;;;;8.83;8.43;;;20.00;53.00;;;;;;5032338;28;20483;-47
2022/12/03 07:16:59;;;;;;;8.80;8.47;;;20.00;53.00;;;;;;5032343;28;20536;-47
2022/12/03 07:19:26;;;;;;;7.93;7.63;;;20.00;53.50;;;;;;5031729;28;20471;-47
2022/12/03 07:21:52;;;;;;;9.20;8.70;;;20.10;53.00;;;;;;5032160;28;20449;-48
2022/12/03 07:24:19;;;;;;;9.30;8.80;;;20.10;53.00;;;;;;5032073;28;20449;-48
2022/12/03 07:27:01;;;;;;;10.00;9.20;;;20.20;53.10;;;;;;4988337;28;20940;-47
2022/12/03 07:29:28;;;;;;;11.43;9.10;;;20.20;53.30;;;;;;5031163;28;20484;-47
2022/12/03 07:31:56;;;;;;;12.77;11.57;;;20.30;53.70;;;;;;5032012;28;20531;-48
2022/12/03 07:34:23;;;;;;;17.83;11.60;;;20.30;54.50;;;;;;5032102;28;20449;-49
2022/12/03 07:36:50;;;;;;;15.53;12.50;;;20.40;55.60;;;;;;5032148;28;20911;-50
2022/12/03 07:39:17;;;;;;;20.33;13.67;;;20.40;59.30;;;;;;5037010;28;20469;-50
2022/12/03 07:41:44;;;;;;;16.93;14.20;;;20.50;67.50;;;;;;5031488;28;20496;-53
2022/12/03 07:44:11;;;;;;;17.53;14.53;;;20.50;66.40;;;;;;5034587;28;20834;-54
2022/12/03 07:46:38;;;;;;;16.50;14.73;;;20.60;65.70;;;;;;5051739;28;20452;-51
2022/12/03 07:49:07;;;;;;;19.13;11.80;;;20.60;65.50;;;;;;5040237;28;20471;-51
2022/12/03 07:51:33;;;;;;;20.03;13.97;;;20.70;63.90;;;;;;5031575;28;20500;-54
2022/12/03 07:54:00;;;;;;;16.13;13.07;;;20.80;64.70;;;;;;5031863;28;20456;-52
2022/12/03 07:56:27;;;;;;;17.03;13.33;;;20.80;63.90;;;;;;5031893;28;20536;-52
2022/12/03 07:58:54;;;;;;;14.73;12.90;;;20.80;63.40;;;;;;5031262;28;20457;-51
2022/12/03 08:01:21;;;;;;;14.97;13.30;;;20.90;62.80;;;;;;5031414;28;20441;-52
2022/12/03 08:03:47;;;;;;;11.90;10.77;;;21.00;62.60;;;;;;5031464;28;20441;-53
2022/12/03 08:06:16;;;;;;;12.40;11.00;;;21.10;61.30;;;;;;5029766;28;20459;-53
2022/12/03 08:08:43;;;;;;;13.67;12.20;;;21.20;60.70;;;;;;5031490;28;20488;-52
2022/12/03 08:11:13;;;;;;;11.73;10.53;;;21.30;59.80;;;;;;5031353;28;20481;-55
2022/12/03 08:13:41;;;;;;;14.70;10.50;;;21.50;59.30;;;;;;5031324;28;20936;-55
2022/12/03 08:16:15;;;;;;;14.13;11.90;;;21.50;58.60;;;;;;5031768;28;20836;-55
2022/12/03 08:18:42;;;;;;;12.13;10.83;;;21.60;58.10;;;;;;5031339;28;20464;-54
2022/12/03 08:21:11;;;;;;;10.83;9.90;;;21.60;57.60;;;;;;5031198;28;20441;-53
2022/12/03 08:23:40;;;;;;;10.30;9.37;;;21.60;57.20;;;;;;5031459;28;20531;-53
2022/12/03 08:26:19;;;;;;;13.50;10.20;;;21.70;56.80;;;;;;5031317;28;20529;-57
2022/12/03 08:28:46;;;;;;;12.07;10.90;;;21.70;56.50;;;;;;5031189;28;20903;-54
2022/12/03 08:31:18;;;;;;;10.50;9.80;;;21.70;56.20;;;;;;5031240;28;20491;-57
2022/12/03 08:33:46;;;;;;;10.97;10.17;;;21.70;56.00;;;;;;5031371;28;20541;-53
2022/12/03 08:36:15;;;;;;;10.03;9.40;;;21.70;55.80;;;;;;5031162;28;20441;-53
2022/12/03 08:38:48;;;;;;;10.57;9.63;;;21.70;55.60;;;;;;5031069;28;20556;-54
2022/12/03 08:42:40;;;;;;;10.70;9.87;;;21.70;55.40;;;;;;5031726;28;20441;-57
2022/12/03 08:44:24;;;;;;;11.83;10.93;;;21.70;55.30;;;;;;5035077;28;20448;-54
2022/12/03 08:46:57;;;;;;;11.37;10.47;;;21.60;55.10;;;;;;5035047;28;20544;-56
2022/12/03 08:49:24;;;;;;;10.93;10.13;;;21.60;54.90;;;;;;5034718;28;20461;-54
2022/12/03 08:51:57;;;;;;;9.63;9.13;;;21.60;54.90;;;;;;5034921;28;20540;-54
2022/12/03 08:54:25;;;;;;;11.50;10.40;;;21.60;54.70;;;;;;5034969;28;20814;-54
2022/12/03 08:56:52;;;;;;;11.07;10.37;;;21.60;54.70;;;;;;5034879;28;20990;-55
2022/12/03 08:59:26;;;;;;;9.97;9.27;;;21.50;54.50;;;;;;5034710;28;20461;-57
2022/12/03 09:01:53;;;;;;;8.97;8.43;;;21.50;54.50;;;;;;5034848;28;20449;-55
2022/12/03 09:04:28;;;;;;;10.70;10.00;;;21.50;54.40;;;;;;5034906;28;20480;-54
2022/12/03 09:06:56;;;;;;;10.13;9.40;;;21.40;54.30;;;;;;5034679;28;20810;-54
2022/12/03 09:09:25;;;;;;;10.10;9.50;;;21.40;54.30;;;;;;5034318;28;20499;-55
2022/12/03 09:11:52;;;;;;;10.83;10.13;;;21.40;54.70;;;;;;5034605;28;20445;-53
2022/12/03 09:14:21;;;;;;;10.30;9.57;;;21.40;54.20;;;;;;5034644;28;20455;-57
2022/12/03 09:16:49;;;;;;;10.83;10.07;;;21.40;54.10;;;;;;5034549;28;20506;-56
2022/12/03 09:19:15;;;;;;;10.70;9.97;;;21.40;54.10;;;;;;5034229;28;20496;-53
2022/12/03 09:21:42;;;;;;;9.70;8.90;;;21.30;53.90;;;;;;5034378;28;21008;-56
2022/12/03 09:24:09;;;;;;;10.17;9.53;;;21.30;53.90;;;;;;5034439;28;20456;-56
2022/12/03 09:26:37;;;;;;;11.17;10.20;;;21.40;53.90;;;;;;5034362;28;20472;-57
2022/12/03 09:29:04;;;;;;;10.13;9.50;;;21.40;53.80;;;;;;5034032;28;20484;-55
2022/12/03 09:31:32;;;;;;;10.33;9.53;;;21.40;53.80;;;;;;5034057;28;20480;-57
2022/12/03 09:34:00;;;;;;;10.27;9.57;;;21.50;53.80;;;;;;5034194;28;20499;-56
2022/12/03 09:36:26;;;;;;;10.80;9.90;;;21.50;53.70;;;;;;5034134;28;20457;-56
2022/12/03 09:38:53;;;;;;;9.97;9.30;;;21.60;53.60;;;;;;5033879;28;20472;-53
2022/12/03 09:41:21;;;;;;;10.50;9.70;;;21.70;53.60;;;;;;5034214;28;20524;-56
2022/12/03 09:43:50;;;;;;;9.80;9.30;;;21.70;53.50;;;;;;5033958;28;20440;-56
2022/12/03 09:46:17;;;;;;;9.37;8.87;;;21.70;53.30;;;;;;5033861;28;20956;-54
2022/12/03 09:48:43;;;;;;;9.40;8.80;;;21.80;53.30;;;;;;5033740;28;20545;-57
2022/12/03 09:51:11;;;;;;;9.27;8.77;;;21.80;53.20;;;;;;5033686;28;20523;-57
2022/12/03 09:53:39;;;;;;;9.17;8.67;;;21.80;53.10;;;;;;5033481;28;20866;-54
2022/12/03 09:56:09;;;;;;;9.87;9.37;;;21.80;53.00;;;;;;5033899;28;20469;-53
2022/12/03 09:58:36;;;;;;;10.70;10.00;;;21.80;52.90;;;;;;5033683;28;20471;-55
2022/12/03 10:01:12;;;;;;;9.43;8.90;;;21.80;52.80;;;;;;5033514;28;20476;-57
2022/12/03 10:03:44;;;;;;;9.37;8.77;;;21.80;52.80;;;;;;5033532;28;20451;-57
2022/12/03 10:06:16;;;;;;;8.93;8.53;;;21.80;52.70;;;;;;5033617;28;20445;-53
2022/12/03 10:08:44;;;;;;;9.73;9.20;;;21.80;52.60;;;;;;5033615;28;20457;-58
2022/12/03 10:11:11;;;;;;;9.60;9.10;;;21.80;52.70;;;;;;5033388;28;20476;-56
2022/12/03 10:13:38;;;;;;;9.10;8.70;;;21.80;52.60;;;;;;5033491;28;20531;-58
2022/12/03 10:16:10;;;;;;;9.17;8.57;;;21.80;52.60;;;;;;5033549;28;20449;-57
2022/12/03 10:18:39;;;;;;;9.70;9.20;;;21.80;52.50;;;;;;5033341;28;20465;-57
2022/12/03 10:21:16;;;;;;;9.93;9.43;;;21.70;52.50;;;;;;5033117;28;20451;-54
2022/12/03 10:23:44;;;;;;;9.00;8.60;;;21.70;52.50;;;;;;5033364;28;21007;-56
2022/12/03 10:26:11;;;;;;;9.83;9.30;;;21.70;52.50;;;;;;5033247;28;20476;-55
2022/12/03 10:28:40;;;;;;;9.30;8.90;;;21.70;52.50;;;;;;5033150;28;20898;-55
2022/12/03 10:31:12;;;;;;;10.70;10.20;;;21.70;52.40;;;;;;5032833;28;20485;-55
2022/12/03 10:33:41;;;;;;;10.37;9.57;;;21.70;52.40;;;;;;5033040;28;20485;-56
2022/12/03 10:36:17;;;;;;;9.67;9.07;;;21.60;52.30;;;;;;5033071;28;20507;-55
2022/12/03 10:38:44;;;;;;;9.90;9.50;;;21.60;52.30;;;;;;5032776;28;20473;-55
2022/12/03 10:41:22;;;;;;;9.90;9.30;;;21.60;52.80;;;;;;5032913;28;20449;-56
2022/12/03 10:43:49;;;;;;;9.40;8.90;;;21.60;52.30;;;;;;5032858;28;20531;-54
2022/12/03 10:46:20;;;;;;;8.97;8.57;;;21.60;52.20;;;;;;5032828;28;20531;-57
2022/12/03 10:49:08;;;;;;;9.40;8.90;;;21.60;52.20;;;;;;5032556;28;20526;-56
2022/12/03 10:51:37;;;;;;;8.77;8.37;;;21.50;52.20;;;;;;5032709;28;20487;-56
2022/12/03 10:54:05;;;;;;;10.13;9.57;;;21.50;52.20;;;;;;5032802;28;20484;-56
2022/12/03 10:56:32;;;;;;;9.07;8.67;;;21.50;52.20;;;;;;5032592;28;21004;-58
2022/12/03 10:58:59;;;;;;;9.93;9.53;;;21.60;52.20;;;;;;5032528;28;20876;-57
2022/12/03 11:01:27;;;;;;;9.33;8.90;;;21.60;52.20;;;;;;5032664;28;20433;-55
2022/12/03 11:04:00;;;;;;;9.97;9.47;;;21.70;52.20;;;;;;5031706;28;20528;-53
2022/12/03 11:06:27;;;;;;;9.30;8.87;;;21.80;52.20;;;;;;5032519;28;20525;-55
2022/12/03 11:08:56;;;;;;;9.67;9.17;;;21.80;52.10;;;;;;5032257;28;20504;-54
2022/12/03 11:11:25;;;;;;;9.27;8.83;;;21.80;52.00;;;;;;5032270;28;20572;-54
2022/12/03 11:13:54;;;;;;;9.40;8.90;;;21.90;52.00;;;;;;5032402;28;20528;-54
2022/12/03 11:17:07;;;;;;;9.20;8.80;;;21.90;51.90;;;;;;5032359;28;20445;-53
2022/12/03 11:19:49;;;;;;;9.83;9.33;;;22.00;51.80;;;;;;5032055;28;20465;-54
2022/12/03 11:22:39;;;;;;;9.20;8.80;;;22.00;51.80;;;;;;5032190;28;20448;-57
2022/12/03 11:25:45;;;;;;;8.63;8.33;;;22.00;51.70;;;;;;5032262;28;20995;-56
2022/12/03 11:28:49;;;;;;;10.03;9.53;;;22.00;51.60;;;;;;5032054;28;21122;-56
2022/12/03 11:31:35;;;;;;;9.10;8.70;;;22.00;51.60;;;;;;5031845;28;20571;-56
2022/12/03 11:34:47;;;;;;;8.87;8.47;;;22.00;51.60;;;;;;5032049;28;20464;-55
2022/12/03 11:37:27;;;;;;;8.63;8.23;;;22.00;51.60;;;;;;5032022;28;20513;-57
2022/12/03 11:40:25;;;;;;;9.23;8.83;;;22.00;51.60;;;;;;5031528;28;20476;-56
2022/12/03 11:42:52;;;;;;;10.00;9.50;;;21.90;51.50;;;;;;5031856;28;20449;-57
2022/12/03 11:45:29;;;;;;;9.13;8.73;;;21.90;51.40;;;;;;5031874;28;20524;-53
2022/12/03 11:48:08;;;;;;;8.50;8.20;;;21.90;51.50;;;;;;5031687;28;20452;-54
2022/12/03 11:50:37;;;;;;;9.50;9.10;;;21.90;51.50;;;;;;5031521;28;20484;-53
2022/12/03 11:53:14;;;;;;;9.73;9.33;;;21.90;51.40;;;;;;5031896;28;20468;-55
2022/12/03 11:55:43;;;;;;;8.83;8.53;;;21.90;51.40;;;;;;5031730;28;20447;-56
2022/12/03 11:58:16;;;;;;;9.07;8.70;;;21.90;51.40;;;;;;5031531;28;20480;-54
2022/12/03 12:00:49;;;;;;;9.43;8.97;;;21.80;51.30;;;;;;5031464;28;20448;-58
2022/12/03 12:03:22;;;;;;;10.87;10.37;;;21.80;51.30;;;;;;5031589;28;20448;-57
2022/12/03 12:06:04;;;;;;;8.67;8.37;;;21.80;51.30;;;;;;5031562;28;20527;-55
2022/12/03 12:08:34;;;;;;;9.57;9.17;;;21.80;51.30;;;;;;5031537;28;20461;-56
2022/12/03 12:11:01;;;;;;;8.97;8.57;;;21.80;51.30;;;;;;5031207;28;20481;-57
2022/12/03 12:13:49;;;;;;;8.70;8.40;;;21.80;51.30;;;;;;5031455;28;20460;-57
2022/12/03 12:16:48;;;;;;;9.57;8.97;;;21.80;51.30;;;;;;5035318;28;20476;-58
2022/12/03 12:19:36;;;;;;;8.53;8.23;;;21.80;51.30;;;;;;5037906;28;20468;-57
2022/12/03 12:22:19;;;;;;;11.37;10.87;;;21.70;51.20;;;;;;5044594;28;20463;-60
2022/12/03 12:24:52;;;;;;;12.70;12.20;;;21.60;50.80;;;;;;5033271;28;20441;-61
2022/12/03 12:27:21;;;;;;;13.13;12.43;;;21.50;50.10;;;;;;5037417;28;20448;-56
2022/12/03 12:29:53;;;;;;;12.60;12.10;;;21.50;50.20;;;;;;5037225;28;20872;-55
2022/12/03 12:32:24;;;;;;;13.40;12.80;;;21.40;50.40;;;;;;5036573;28;20477;-55
2022/12/03 12:34:54;;;;;;;14.20;13.50;;;21.40;50.50;;;;;;5023703;28;20535;-54
2022/12/03 12:37:26;;;;;;;13.20;12.60;;;21.40;50.60;;;;;;5038288;28;20473;-56
2022/12/03 12:39:57;;;;;;;11.80;11.10;;;21.40;50.60;;;;;;5038021;28;20512;-55
2022/12/03 12:42:35;;;;;;;11.87;11.37;;;21.40;50.60;;;;;;5042261;28;20439;-56
2022/12/03 12:45:13;;;;;;;12.00;11.30;;;21.40;50.50;;;;;;5057797;28;20539;-52
2022/12/03 12:47:48;;;;;;;11.80;11.20;;;21.40;50.50;;;;;;5043048;28;20455;-58
2022/12/03 12:50:15;;;;;;;10.80;10.30;;;21.40;50.50;;;;;;5037680;28;20495;-56
2022/12/03 12:52:49;;;;;;;10.93;10.43;;;21.40;50.70;;;;;;5037815;28;20484;-54
2022/12/03 12:55:18;;;;;;;10.37;9.87;;;21.50;50.80;;;;;;5037837;28;20455;-55
2022/12/03 12:57:45;;;;;;;10.60;10.13;;;21.50;50.30;;;;;;5037711;28;20826;-57
2022/12/03 13:00:18;;;;;;;10.80;10.30;;;21.50;50.30;;;;;;5055121;28;20451;-59
2022/12/03 13:02:51;;;;;;;11.10;10.40;;;21.40;50.10;;;;;;5057857;28;20440;-59
2022/12/03 13:05:19;;;;;;;11.77;11.17;;;21.50;50.40;;;;;;5057774;28;20867;-60
2022/12/03 13:07:46;;;;;;;11.63;11.07;;;21.50;50.60;;;;;;5046664;28;20544;-58
2022/12/03 13:10:36;;;;;;;11.40;10.80;;;21.50;50.90;;;;;;5037231;28;20536;-63
2022/12/03 13:13:19;;;;;;;10.10;9.63;;;21.60;50.90;;;;;;5038499;28;20454;-59